Terminal Aerodrome Forecast
Issued by NWS Cleveland, OH

Current Version | Previous Version | Text Only | Print | Product List | Glossary On
Versions: 1 2 3 4 5 6 7 8 9 10 11 12 13 14 15
407
FTUS41 KCLE 241120
TAFYNG
TAF
KYNG 241120Z 2412/2512 15004KT P6SM BKN250
     FM241600 20007KT P6SM SCT050
     FM242000 20010KT P6SM BKN050 BKN150
     FM250200 20010KT P6SM VCTS OVC050CB
     FM250800 22008KT 5SM -SHRA BR OVC035=

USA.gov is the U.S. government's official web portal to all federal, state and local government web resources and services.